Terminal Aerodrome Forecast
Issued by NWS Amarillo, TX

Home | Current Version | Previous Version | Text Only | Print | Product List | Glossary On
Versions: 1 2 3 4 5 6 7 8 9 10 11 12 13 14 15 16 17 18 19 20 21 22 23 24 25 26 27 28 29
000
FTUS44 KAMA 011700
TAFGUY
TAF
KGUY 011735Z 0118/0218 04009KT P6SM OVC008
     FM011900 06008KT P6SM SCT008 OVC012
     FM020400 09004KT 2SM BR OVC003
     FM021600 16010KT 4SM BR OVC009=

USA.gov is the U.S. government's official web portal to all federal, state and local government web resources and services.